sensor_id;sensor_type;location;lat;lon;timestamp;pressure;altitude;pressure_sealevel;temperature;humidity
64066;BME280;50318;54.760;9.408;2023-01-28T00:01:31;102537.19;;;0.41;64.68
64066;BME280;50318;54.760;9.408;2023-01-28T00:03:57;102570.09;;;0.55;64.82
64066;BME280;50318;54.760;9.408;2023-01-28T00:06:26;102550.59;;;0.38;64.55
64066;BME280;50318;54.760;9.408;2023-01-28T00:09:01;102527.03;;;0.14;64.47
64066;BME280;50318;54.760;9.408;2023-01-28T00:11:27;102537.41;;;0.24;64.59
64066;BME280;50318;54.760;9.408;2023-01-28T00:14:11;102529.38;;;0.15;64.86
64066;BME280;50318;54.760;9.408;2023-01-28T00:16:40;102536.81;;;0.18;64.67
64066;BME280;50318;54.760;9.408;2023-01-28T00:19:06;102554.97;;;0.30;64.46
64066;BME280;50318;54.760;9.408;2023-01-28T00:21:32;102594.28;;;0.52;64.32
64066;BME280;50318;54.760;9.408;2023-01-28T00:23:59;102567.34;;;0.31;64.63
64066;BME280;50318;54.760;9.408;2023-01-28T00:26:27;102566.09;;;0.28;64.79
64066;BME280;50318;54.760;9.408;2023-01-28T00:28:56;102571.06;;;0.39;64.68
64066;BME280;50318;54.760;9.408;2023-01-28T00:31:25;102586.97;;;0.52;64.52
64066;BME280;50318;54.760;9.408;2023-01-28T00:33:54;102584.94;;;0.49;64.43
64066;BME280;50318;54.760;9.408;2023-01-28T00:36:22;102585.38;;;0.51;64.53
64066;BME280;50318;54.760;9.408;2023-01-28T00:38:54;102584.16;;;0.49;64.43
64066;BME280;50318;54.760;9.408;2023-01-28T00:41:23;102572.56;;;0.48;64.48
64066;BME280;50318;54.760;9.408;2023-01-28T00:43:51;102572.88;;;0.47;64.10
64066;BME280;50318;54.760;9.408;2023-01-28T00:46:18;102562.16;;;0.38;64.44
64066;BME280;50318;54.760;9.408;2023-01-28T00:48:44;102567.81;;;0.45;64.40
64066;BME280;50318;54.760;9.408;2023-01-28T00:51:13;102564.41;;;0.36;63.93
64066;BME280;50318;54.760;9.408;2023-01-28T00:53:40;102562.38;;;0.33;64.22
64066;BME280;50318;54.760;9.408;2023-01-28T00:56:07;102557.22;;;0.28;64.38
64066;BME280;50318;54.760;9.408;2023-01-28T00:58:34;102561.16;;;0.30;64.18
64066;BME280;50318;54.760;9.408;2023-01-28T01:01:18;102578.13;;;0.31;64.26
64066;BME280;50318;54.760;9.408;2023-01-28T01:03:44;102569.47;;;0.25;64.26
64066;BME280;50318;54.760;9.408;2023-01-28T01:06:14;102559.63;;;0.09;64.28
64066;BME280;50318;54.760;9.408;2023-01-28T01:08:41;102564.94;;;0.17;64.52
64066;BME280;50318;54.760;9.408;2023-01-28T01:11:09;102570.91;;;0.23;64.51
64066;BME280;50318;54.760;9.408;2023-01-28T01:13:38;102522.41;;;0.02;64.64
64066;BME280;50318;54.760;9.408;2023-01-28T01:16:07;102530.16;;;0.04;64.77
64066;BME280;50318;54.760;9.408;2023-01-28T01:18:34;102554.91;;;0.18;64.75
64066;BME280;50318;54.760;9.408;2023-01-28T01:21:01;102558.75;;;0.17;64.50
64066;BME280;50318;54.760;9.408;2023-01-28T01:23:29;102553.34;;;0.17;64.55
64066;BME280;50318;54.760;9.408;2023-01-28T01:25:56;102558.97;;;0.12;64.30
64066;BME280;50318;54.760;9.408;2023-01-28T01:28:22;102553.78;;;0.07;64.15
64066;BME280;50318;54.760;9.408;2023-01-28T01:30:48;102565.03;;;0.09;64.44
64066;BME280;50318;54.760;9.408;2023-01-28T01:33:15;102558.50;;;0.10;64.36
64066;BME280;50318;54.760;9.408;2023-01-28T01:35:41;102559.63;;;0.09;64.43
64066;BME280;50318;54.760;9.408;2023-01-28T01:38:07;102531.09;;;-0.13;64.09
64066;BME280;50318;54.760;9.408;2023-01-28T01:40:33;102560.28;;;0.06;64.41
64066;BME280;50318;54.760;9.408;2023-01-28T01:43:00;102531.22;;;-0.10;63.95
64066;BME280;50318;54.760;9.408;2023-01-28T01:45:28;102539.38;;;0.03;64.32
64066;BME280;50318;54.760;9.408;2023-01-28T01:48:12;102537.13;;;0.05;64.59
64066;BME280;50318;54.760;9.408;2023-01-28T01:50:50;102540.94;;;0.04;64.42
64066;BME280;50318;54.760;9.408;2023-01-28T01:53:21;102544.88;;;0.06;64.29
64066;BME280;50318;54.760;9.408;2023-01-28T01:55:52;102544.56;;;0.08;64.68
64066;BME280;50318;54.760;9.408;2023-01-28T01:58:23;102508.28;;;-0.16;64.32
64066;BME280;50318;54.760;9.408;2023-01-28T02:00:51;102525.56;;;0.04;64.46
64066;BME280;50318;54.760;9.408;2023-01-28T02:03:22;102540.94;;;0.04;64.69
64066;BME280;50318;54.760;9.408;2023-01-28T02:05:50;102509.84;;;-0.15;64.55
64066;BME280;50318;54.760;9.408;2023-01-28T02:08:16;102534.31;;;0.01;64.71
64066;BME280;50318;54.760;9.408;2023-01-28T02:10:44;102493.28;;;-0.25;64.72
64066;BME280;50318;54.760;9.408;2023-01-28T02:13:14;102526.75;;;-0.06;64.25
64066;BME280;50318;54.760;9.408;2023-01-28T02:15:42;102532.69;;;-0.12;64.11
64066;BME280;50318;54.760;9.408;2023-01-28T02:18:09;102549.38;;;0.02;64.19
64066;BME280;50318;54.760;9.408;2023-01-28T02:23:24;102564.56;;;0.07;64.50
64066;BME280;50318;54.760;9.408;2023-01-28T02:28:31;102550.97;;;0.03;64.32
64066;BME280;50318;54.760;9.408;2023-01-28T02:31:15;102542.41;;;0.01;64.45
64066;BME280;50318;54.760;9.408;2023-01-28T02:33:55;102541.63;;;0.01;64.33
64066;BME280;50318;54.760;9.408;2023-01-28T02:39:00;102529.09;;;-0.04;64.37
64066;BME280;50318;54.760;9.408;2023-01-28T02:41:34;102539.38;;;0.03;64.25
64066;BME280;50318;54.760;9.408;2023-01-28T02:44:04;102516.22;;;0.02;64.55
64066;BME280;50318;54.760;9.408;2023-01-28T02:48:56;102519.09;;;-0.04;64.97
64066;BME280;50318;54.760;9.408;2023-01-28T02:54:11;102519.81;;;0.06;64.66
64066;BME280;50318;54.760;9.408;2023-01-28T02:56:46;102515.09;;;0.03;64.62
64066;BME280;50318;54.760;9.408;2023-01-28T02:59:22;102502.47;;;-0.06;64.87
64066;BME280;50318;54.760;9.408;2023-01-28T03:05:06;102514.63;;;0.01;64.46
64066;BME280;50318;54.760;9.408;2023-01-28T03:07:36;102502.78;;;-0.07;64.65
64066;BME280;50318;54.760;9.408;2023-01-28T03:10:08;102513.59;;;-0.07;64.98
64066;BME280;50318;54.760;9.408;2023-01-28T03:12:39;102490.41;;;-0.20;64.48
64066;BME280;50318;54.760;9.408;2023-01-28T03:15:16;102512.13;;;-0.05;64.37
64066;BME280;50318;54.760;9.408;2023-01-28T03:21:03;102513.47;;;-0.11;64.41
64066;BME280;50318;54.760;9.408;2023-01-28T03:23:55;102517.75;;;-0.10;64.56
64066;BME280;50318;54.760;9.408;2023-01-28T03:26:59;102503.75;;;-0.24;64.77
64066;BME280;50318;54.760;9.408;2023-01-28T03:29:54;102505.53;;;-0.28;64.39
64066;BME280;50318;54.760;9.408;2023-01-28T03:32:43;102514.22;;;-0.22;64.28
64066;BME280;50318;54.760;9.408;2023-01-28T03:35:32;102523.81;;;-0.13;64.65
64066;BME280;50318;54.760;9.408;2023-01-28T03:38:20;102519.28;;;-0.21;64.74
64066;BME280;50318;54.760;9.408;2023-01-28T03:43:15;102512.69;;;-0.11;64.46
64066;BME280;50318;54.760;9.408;2023-01-28T03:45:44;102479.69;;;-0.29;65.12
64066;BME280;50318;54.760;9.408;2023-01-28T03:48:11;102495.69;;;-0.12;64.64
64066;BME280;50318;54.760;9.408;2023-01-28T03:50:38;102498.84;;;-0.10;64.85
64066;BME280;50318;54.760;9.408;2023-01-28T03:53:05;102496.28;;;-0.06;64.55
64066;BME280;50318;54.760;9.408;2023-01-28T03:55:37;102484.69;;;-0.19;64.76
64066;BME280;50318;54.760;9.408;2023-01-28T03:58:05;102495.50;;;-0.07;64.59
64066;BME280;50318;54.760;9.408;2023-01-28T04:00:31;102493.91;;;-0.08;64.28
64066;BME280;50318;54.760;9.408;2023-01-28T04:03:04;102472.75;;;-0.18;64.80
64066;BME280;50318;54.760;9.408;2023-01-28T04:05:33;102451.69;;;-0.37;64.53
64066;BME280;50318;54.760;9.408;2023-01-28T04:07:59;102473.22;;;-0.16;64.45
64066;BME280;50318;54.760;9.408;2023-01-28T04:10:38;102452.59;;;-0.33;64.37
64066;BME280;50318;54.760;9.408;2023-01-28T04:13:15;102440.78;;;-0.40;64.00
64066;BME280;50318;54.760;9.408;2023-01-28T04:15:43;102428.03;;;-0.52;64.20
64066;BME280;50318;54.760;9.408;2023-01-28T04:18:10;102454.72;;;-0.38;64.79
64066;BME280;50318;54.760;9.408;2023-01-28T04:20:37;102497.16;;;-0.14;64.81
64066;BME280;50318;54.760;9.408;2023-01-28T04:23:04;102487.06;;;-0.05;65.00
64066;BME280;50318;54.760;9.408;2023-01-28T04:25:31;102462.88;;;-0.14;65.04
64066;BME280;50318;54.760;9.408;2023-01-28T04:27:57;102456.81;;;-0.11;65.15
64066;BME280;50318;54.760;9.408;2023-01-28T04:30:26;102457.16;;;-0.12;65.44
64066;BME280;50318;54.760;9.408;2023-01-28T04:33:18;102445.34;;;-0.08;65.05
64066;BME280;50318;54.760;9.408;2023-01-28T04:36:07;102443.09;;;-0.06;65.09
64066;BME280;50318;54.760;9.408;2023-01-28T04:38:53;102466.38;;;-0.01;64.65
64066;BME280;50318;54.760;9.408;2023-01-28T04:41:39;102453.00;;;-0.10;65.03
64066;BME280;50318;54.760;9.408;2023-01-28T04:44:24;102434.34;;;-0.15;65.49
64066;BME280;50318;54.760;9.408;2023-01-28T04:47:13;102435.00;;;-0.06;65.51
64066;BME280;50318;54.760;9.408;2023-01-28T04:50:04;102404.78;;;-0.11;65.59
64066;BME280;50318;54.760;9.408;2023-01-28T04:52:40;102417.25;;;-0.07;65.72
64066;BME280;50318;54.760;9.408;2023-01-28T04:55:22;102422.19;;;-0.09;65.93
64066;BME280;50318;54.760;9.408;2023-01-28T04:57:49;102423.31;;;-0.10;65.97
64066;BME280;50318;54.760;9.408;2023-01-28T05:00:15;102392.19;;;-0.19;65.82
64066;BME280;50318;54.760;9.408;2023-01-28T05:02:42;102397.00;;;-0.13;66.25
64066;BME280;50318;54.760;9.408;2023-01-28T05:05:08;102440.44;;;0.19;66.34
64066;BME280;50318;54.760;9.408;2023-01-28T05:07:42;102424.13;;;0.15;66.14
64066;BME280;50318;54.760;9.408;2023-01-28T05:10:08;102420.41;;;0.20;66.19
64066;BME280;50318;54.760;9.408;2023-01-28T05:12:35;102419.88;;;0.26;66.18
64066;BME280;50318;54.760;9.408;2023-01-28T05:15:05;102424.03;;;0.36;66.54
64066;BME280;50318;54.760;9.408;2023-01-28T05:17:32;102433.72;;;0.49;66.42
64066;BME280;50318;54.760;9.408;2023-01-28T05:19:58;102421.56;;;0.43;66.34
64066;BME280;50318;54.760;9.408;2023-01-28T05:22:27;102406.59;;;0.46;66.19
64066;BME280;50318;54.760;9.408;2023-01-28T05:25:10;102408.94;;;0.47;66.36
64066;BME280;50318;54.760;9.408;2023-01-28T05:27:36;102410.56;;;0.48;66.18
64066;BME280;50318;54.760;9.408;2023-01-28T05:30:03;102399.50;;;0.41;65.96
64066;BME280;50318;54.760;9.408;2023-01-28T05:32:29;102428.97;;;0.58;66.14
64066;BME280;50318;54.760;9.408;2023-01-28T05:34:55;102396.56;;;0.46;65.89
64066;BME280;50318;54.760;9.408;2023-01-28T05:37:22;102421.13;;;0.53;65.41
64066;BME280;50318;54.760;9.408;2023-01-28T05:39:51;102424.16;;;0.52;65.85
64066;BME280;50318;54.760;9.408;2023-01-28T05:42:18;102413.25;;;0.48;65.94
64066;BME280;50318;54.760;9.408;2023-01-28T05:44:46;102401.53;;;0.32;66.04
64066;BME280;50318;54.760;9.408;2023-01-28T05:47:32;102394.22;;;0.20;66.01
64066;BME280;50318;54.760;9.408;2023-01-28T05:50:12;102419.75;;;0.47;65.96
64066;BME280;50318;54.760;9.408;2023-01-28T05:53:07;102417.72;;;0.44;66.35
64066;BME280;50318;54.760;9.408;2023-01-28T05:55:35;102400.31;;;0.29;66.13
64066;BME280;50318;54.760;9.408;2023-01-28T05:58:01;102411.91;;;0.30;66.40
64066;BME280;50318;54.760;9.408;2023-01-28T06:00:27;102417.16;;;0.39;66.64
64066;BME280;50318;54.760;9.408;2023-01-28T06:02:54;102409.31;;;0.34;66.21
64066;BME280;50318;54.760;9.408;2023-01-28T06:05:20;102436.09;;;0.51;66.39
64066;BME280;50318;54.760;9.408;2023-01-28T06:07:47;102438.44;;;0.52;66.58
64066;BME280;50318;54.760;9.408;2023-01-28T06:10:14;102445.53;;;0.57;66.56
64066;BME280;50318;54.760;9.408;2023-01-28T06:12:41;102419.44;;;0.49;66.32
64066;BME280;50318;54.760;9.408;2023-01-28T06:15:30;102431.22;;;0.56;66.79
64066;BME280;50318;54.760;9.408;2023-01-28T06:18:15;102423.47;;;0.55;66.64
64066;BME280;50318;54.760;9.408;2023-01-28T06:20:42;102433.94;;;0.56;66.32
64066;BME280;50318;54.760;9.408;2023-01-28T06:23:09;102433.03;;;0.52;66.70
64066;BME280;50318;54.760;9.408;2023-01-28T06:25:35;102433.16;;;0.56;66.44
64066;BME280;50318;54.760;9.408;2023-01-28T06:28:06;102416.38;;;0.38;66.64
64066;BME280;50318;54.760;9.408;2023-01-28T06:30:32;102421.56;;;0.43;66.63
64066;BME280;50318;54.760;9.408;2023-01-28T06:32:58;102445.41;;;0.66;66.86
64066;BME280;50318;54.760;9.408;2023-01-28T06:35:24;102427.97;;;0.63;66.90
64066;BME280;50318;54.760;9.408;2023-01-28T06:37:51;102433.00;;;0.65;66.51
64066;BME280;50318;54.760;9.408;2023-01-28T06:40:17;102403.53;;;0.47;66.44
64066;BME280;50318;54.760;9.408;2023-01-28T06:42:44;102437.41;;;0.69;66.70
64066;BME280;50318;54.760;9.408;2023-01-28T06:45:10;102442.44;;;0.71;66.75
64066;BME280;50318;54.760;9.408;2023-01-28T06:47:39;102410.19;;;0.62;66.31
64066;BME280;50318;54.760;9.408;2023-01-28T06:50:06;102425.59;;;0.74;66.46
64066;BME280;50318;54.760;9.408;2023-01-28T06:52:32;102424.13;;;0.76;66.18
64066;BME280;50318;54.760;9.408;2023-01-28T06:54:58;102398.34;;;0.67;66.30
64066;BME280;50318;54.760;9.408;2023-01-28T06:57:24;102409.72;;;0.72;66.23
64066;BME280;50318;54.760;9.408;2023-01-28T06:59:51;102455.03;;;0.91;66.48
64066;BME280;50318;54.760;9.408;2023-01-28T07:02:17;102446.28;;;0.82;66.49
64066;BME280;50318;54.760;9.408;2023-01-28T07:04:43;102439.41;;;0.84;66.54
64066;BME280;50318;54.760;9.408;2023-01-28T07:07:09;102435.78;;;0.92;66.61
64066;BME280;50318;54.760;9.408;2023-01-28T07:09:35;102430.50;;;0.96;66.33
64066;BME280;50318;54.760;9.408;2023-01-28T07:12:01;102451.84;;;1.13;66.82
64066;BME280;50318;54.760;9.408;2023-01-28T07:14:27;102439.00;;;1.10;66.84
64066;BME280;50318;54.760;9.408;2023-01-28T07:16:53;102449.09;;;1.26;66.88
64066;BME280;50318;54.760;9.408;2023-01-28T07:19:19;102439.44;;;1.25;66.66
64066;BME280;50318;54.760;9.408;2023-01-28T07:21:46;102438.19;;;1.22;66.07
64066;BME280;50318;54.760;9.408;2023-01-28T07:24:12;102460.91;;;1.33;66.43
64066;BME280;50318;54.760;9.408;2023-01-28T07:26:38;102462.81;;;1.33;66.67
64066;BME280;50318;54.760;9.408;2023-01-28T07:29:04;102465.72;;;1.40;66.62
64066;BME280;50318;54.760;9.408;2023-01-28T07:31:30;102469.44;;;1.47;66.54
64066;BME280;50318;54.760;9.408;2023-01-28T07:33:56;102462.97;;;1.52;66.39
64066;BME280;50318;54.760;9.408;2023-01-28T07:36:22;102458.25;;;1.49;66.47
64066;BME280;50318;54.760;9.408;2023-01-28T07:38:48;102461.75;;;1.49;65.90
64066;BME280;50318;54.760;9.408;2023-01-28T07:41:14;102462.34;;;1.43;66.41
64066;BME280;50318;54.760;9.408;2023-01-28T07:43:41;102452.00;;;1.33;66.45
64066;BME280;50318;54.760;9.408;2023-01-28T07:46:07;102450.19;;;1.37;66.34
64066;BME280;50318;54.760;9.408;2023-01-28T07:48:33;102445.03;;;1.32;66.37
64066;BME280;50318;54.760;9.408;2023-01-28T07:50:59;102453.53;;;1.46;66.28
64066;BME280;50318;54.760;9.408;2023-01-28T07:53:25;102479.16;;;1.64;66.63
64066;BME280;50318;54.760;9.408;2023-01-28T07:55:51;102485.22;;;1.73;66.45
64066;BME280;50318;54.760;9.408;2023-01-28T07:58:23;102474.22;;;1.82;66.89
64066;BME280;50318;54.760;9.408;2023-01-28T08:00:49;102478.78;;;1.94;66.74
64066;BME280;50318;54.760;9.408;2023-01-28T08:03:15;102466.84;;;1.95;66.58
64066;BME280;50318;54.760;9.408;2023-01-28T08:05:43;102476.88;;;2.10;66.77
64066;BME280;50318;54.760;9.408;2023-01-28T08:08:10;102475.06;;;2.14;66.47
64066;BME280;50318;54.760;9.408;2023-01-28T08:10:37;102475.06;;;2.14;66.71
64066;BME280;50318;54.760;9.408;2023-01-28T08:13:04;102474.78;;;2.19;66.46
64066;BME280;50318;54.760;9.408;2023-01-28T08:15:30;102471.91;;;2.28;66.74
64066;BME280;50318;54.760;9.408;2023-01-28T08:17:57;102471.03;;;2.24;66.67
64066;BME280;50318;54.760;9.408;2023-01-28T08:20:25;102489.09;;;2.35;66.56
64066;BME280;50318;54.760;9.408;2023-01-28T08:22:51;102490.78;;;2.40;66.87
64066;BME280;50318;54.760;9.408;2023-01-28T08:25:18;102452.78;;;2.21;66.82
64066;BME280;50318;54.760;9.408;2023-01-28T08:27:44;102479.50;;;2.54;66.76
64066;BME280;50318;54.760;9.408;2023-01-28T08:30:11;102465.00;;;2.46;66.97
64066;BME280;50318;54.760;9.408;2023-01-28T08:32:37;102472.66;;;2.60;66.92
64066;BME280;50318;54.760;9.408;2023-01-28T08:35:04;102462.88;;;2.55;66.81
64066;BME280;50318;54.760;9.408;2023-01-28T08:37:30;102476.84;;;2.73;66.91
64066;BME280;50318;54.760;9.408;2023-01-28T08:39:56;102469.16;;;2.75;66.74
64066;BME280;50318;54.760;9.408;2023-01-28T08:42:22;102449.59;;;2.66;66.51
64066;BME280;50318;54.760;9.408;2023-01-28T08:44:48;102479.34;;;2.97;66.99
64066;BME280;50318;54.760;9.408;2023-01-28T08:47:14;102493.03;;;3.04;66.96
64066;BME280;50318;54.760;9.408;2023-01-28T08:49:40;102489.28;;;3.09;67.18
64066;BME280;50318;54.760;9.408;2023-01-28T08:52:07;102485.06;;;3.12;66.67
64066;BME280;50318;54.760;9.408;2023-01-28T08:54:33;102490.34;;;3.24;66.84
64066;BME280;50318;54.760;9.408;2023-01-28T08:56:59;102511.59;;;3.37;66.73
64066;BME280;50318;54.760;9.408;2023-01-28T08:59:25;102476.81;;;3.43;66.96
64066;BME280;50318;54.760;9.408;2023-01-28T09:01:51;102480.44;;;3.51;66.83
64066;BME280;50318;54.760;9.408;2023-01-28T09:04:17;102470.38;;;3.51;66.71
64066;BME280;50318;54.760;9.408;2023-01-28T09:06:46;102441.25;;;3.29;66.71
64066;BME280;50318;54.760;9.408;2023-01-28T09:09:12;102474.66;;;3.52;66.58
64066;BME280;50318;54.760;9.408;2023-01-28T09:11:40;102475.66;;;3.63;66.79
64066;BME280;50318;54.760;9.408;2023-01-28T09:14:06;102469.50;;;3.66;66.84
64066;BME280;50318;54.760;9.408;2023-01-28T09:16:32;102475.06;;;3.74;66.99
64066;BME280;50318;54.760;9.408;2023-01-28T09:18:58;102463.00;;;3.71;66.92
64066;BME280;50318;54.760;9.408;2023-01-28T09:21:25;102459.06;;;3.68;67.29
64066;BME280;50318;54.760;9.408;2023-01-28T09:23:51;102483.13;;;3.89;67.42
64066;BME280;50318;54.760;9.408;2023-01-28T09:26:19;102456.91;;;3.78;67.07
64066;BME280;50318;54.760;9.408;2023-01-28T09:28:46;102485.66;;;4.01;66.75
64066;BME280;50318;54.760;9.408;2023-01-28T09:31:12;102444.56;;;3.80;66.84
64066;BME280;50318;54.760;9.408;2023-01-28T09:33:39;102477.28;;;4.10;67.26
64066;BME280;50318;54.760;9.408;2023-01-28T09:36:07;102469.56;;;4.12;67.08
64066;BME280;50318;54.760;9.408;2023-01-28T09:38:35;102461.31;;;4.05;66.96
64066;BME280;50318;54.760;9.408;2023-01-28T09:41:08;102455.63;;;4.14;67.46
64066;BME280;50318;54.760;9.408;2023-01-28T09:46:11;102434.84;;;4.25;67.41
64066;BME280;50318;54.760;9.408;2023-01-28T09:48:50;102407.66;;;4.25;67.30
64066;BME280;50318;54.760;9.408;2023-01-28T09:53:54;102446.72;;;4.40;67.18
64066;BME280;50318;54.760;9.408;2023-01-28T09:56:29;102425.44;;;4.45;67.20
64066;BME280;50318;54.760;9.408;2023-01-28T09:59:12;102416.56;;;4.48;67.08
64066;BME280;50318;54.760;9.408;2023-01-28T10:01:50;102404.91;;;4.48;67.62
64066;BME280;50318;54.760;9.408;2023-01-28T10:10:12;102418.34;;;4.63;67.31
64066;BME280;50318;54.760;9.408;2023-01-28T10:15:48;102427.53;;;4.82;67.41
64066;BME280;50318;54.760;9.408;2023-01-28T10:18:21;102413.53;;;4.80;66.66
64066;BME280;50318;54.760;9.408;2023-01-28T10:20:59;102425.34;;;4.94;66.48
64066;BME280;50318;54.760;9.408;2023-01-28T10:23:38;102412.50;;;4.91;66.62
64066;BME280;50318;54.760;9.408;2023-01-28T10:26:24;102392.00;;;4.98;66.98
64066;BME280;50318;54.760;9.408;2023-01-28T10:29:05;102391.63;;;4.99;67.07
64066;BME280;50318;54.760;9.408;2023-01-28T10:31:40;102392.50;;;5.07;67.08
64066;BME280;50318;54.760;9.408;2023-01-28T10:34:10;102389.41;;;5.08;66.69
64066;BME280;50318;54.760;9.408;2023-01-28T10:36:36;102384.66;;;5.02;66.44
64066;BME280;50318;54.760;9.408;2023-01-28T10:39:02;102377.53;;;4.90;66.56
64066;BME280;50318;54.760;9.408;2023-01-28T10:41:29;102376.56;;;4.75;66.71
64066;BME280;50318;54.760;9.408;2023-01-28T10:43:55;102393.31;;;4.77;66.79
64066;BME280;50318;54.760;9.408;2023-01-28T10:46:31;102407.75;;;4.85;66.68
64066;BME280;50318;54.760;9.408;2023-01-28T10:49:11;102388.28;;;4.79;66.73
64066;BME280;50318;54.760;9.408;2023-01-28T10:51:40;102402.31;;;4.85;67.19
64066;BME280;50318;54.760;9.408;2023-01-28T10:54:27;102392.22;;;4.85;67.09
64066;BME280;50318;54.760;9.408;2023-01-28T10:56:56;102379.47;;;4.89;67.55
64066;BME280;50318;54.760;9.408;2023-01-28T10:59:29;102379.91;;;4.95;68.05
64066;BME280;50318;54.760;9.408;2023-01-28T11:01:57;102361.38;;;5.04;67.89
64066;BME280;50318;54.760;9.408;2023-01-28T11:04:35;102365.03;;;5.19;67.83
64066;BME280;50318;54.760;9.408;2023-01-28T11:07:05;102353.44;;;5.22;67.66
64066;BME280;50318;54.760;9.408;2023-01-28T11:09:32;102352.69;;;5.25;68.10
64066;BME280;50318;54.760;9.408;2023-01-28T11:12:17;102349.88;;;5.18;67.55
64066;BME280;50318;54.760;9.408;2023-01-28T11:17:23;102332.38;;;5.19;67.97
64066;BME280;50318;54.760;9.408;2023-01-28T11:19:50;102327.38;;;5.21;68.07
64066;BME280;50318;54.760;9.408;2023-01-28T11:22:38;102343.84;;;5.35;67.89
64066;BME280;50318;54.760;9.408;2023-01-28T11:25:29;102314.22;;;5.27;68.14
64066;BME280;50318;54.760;9.408;2023-01-28T11:27:57;102333.94;;;5.57;67.61
64066;BME280;50318;54.760;9.408;2023-01-28T11:30:25;102339.13;;;5.69;67.89
64066;BME280;50318;54.760;9.408;2023-01-28T11:33:13;102344.25;;;5.81;67.46
64066;BME280;50318;54.760;9.408;2023-01-28T11:35:41;102335.72;;;5.86;67.81
64066;BME280;50318;54.760;9.408;2023-01-28T11:38:17;102341.00;;;6.09;67.17
64066;BME280;50318;54.760;9.408;2023-01-28T11:40:55;102335.13;;;6.07;66.91
64066;BME280;50318;54.760;9.408;2023-01-28T11:43:24;102350.84;;;6.25;66.82
64066;BME280;50318;54.760;9.408;2023-01-28T11:51:42;102320.50;;;6.30;66.45
64066;BME280;50318;54.760;9.408;2023-01-28T12:01:54;102321.13;;;6.82;66.25
64066;BME280;50318;54.760;9.408;2023-01-28T12:04:45;102275.88;;;6.63;66.44
64066;BME280;50318;54.760;9.408;2023-01-28T12:11:00;102317.69;;;7.09;64.90
64066;BME280;50318;54.760;9.408;2023-01-28T12:29:00;102316.56;;;7.32;64.75
64066;BME280;50318;54.760;9.408;2023-01-28T12:31:41;102308.00;;;7.26;64.66
64066;BME280;50318;54.760;9.408;2023-01-28T12:45:46;102305.22;;;6.98;65.44
64066;BME280;50318;54.760;9.408;2023-01-28T12:48:27;102286.50;;;6.93;65.50
64066;BME280;50318;54.760;9.408;2023-01-28T12:51:09;102291.19;;;7.06;65.39
64066;BME280;50318;54.760;9.408;2023-01-28T12:54:01;102302.91;;;7.21;65.68
64066;BME280;50318;54.760;9.408;2023-01-28T12:56:37;102286.94;;;7.23;65.55
64066;BME280;50318;54.760;9.408;2023-01-28T12:59:15;102299.84;;;7.37;65.22
64066;BME280;50318;54.760;9.408;2023-01-28T13:08:22;102279.94;;;7.44;64.72
64066;BME280;50318;54.760;9.408;2023-01-28T13:10:18;102267.84;;;7.41;65.02
64066;BME280;50318;54.760;9.408;2023-01-28T13:12:47;102253.41;;;7.26;65.15
64066;BME280;50318;54.760;9.408;2023-01-28T13:15:16;102238.97;;;7.22;65.72
64066;BME280;50318;54.760;9.408;2023-01-28T13:18:03;102233.91;;;7.35;65.28
64066;BME280;50318;54.760;9.408;2023-01-28T13:20:46;102246.38;;;7.47;65.76
64066;BME280;50318;54.760;9.408;2023-01-28T13:25:56;102245.19;;;7.55;65.50
64066;BME280;50318;54.760;9.408;2023-01-28T13:28:33;102216.34;;;7.57;65.38
64066;BME280;50318;54.760;9.408;2023-01-28T13:31:02;102227.25;;;7.72;64.83
64066;BME280;50318;54.760;9.408;2023-01-28T13:33:35;102209.69;;;7.69;65.17
64066;BME280;50318;54.760;9.408;2023-01-28T13:36:18;102202.63;;;7.79;64.76
64066;BME280;50318;54.760;9.408;2023-01-28T13:38:48;102229.91;;;8.00;64.98
64066;BME280;50318;54.760;9.408;2023-01-28T13:44:32;102233.44;;;8.00;64.79
64066;BME280;50318;54.760;9.408;2023-01-28T13:49:48;102252.59;;;7.86;65.22
64066;BME280;50318;54.760;9.408;2023-01-28T13:52:22;102267.44;;;7.85;65.01
64066;BME280;50318;54.760;9.408;2023-01-28T13:55:04;102237.78;;;7.84;64.97
64066;BME280;50318;54.760;9.408;2023-01-28T14:17:47;102256.09;;;7.90;65.98
64066;BME280;50318;54.760;9.408;2023-01-28T14:23:00;102227.59;;;7.95;65.80
64066;BME280;50318;54.760;9.408;2023-01-28T14:29:00;102229.91;;;8.07;65.66
64066;BME280;50318;54.760;9.408;2023-01-28T14:31:32;102222.47;;;8.04;65.74
64066;BME280;50318;54.760;9.408;2023-01-28T14:36:40;102206.91;;;7.94;65.87
64066;BME280;50318;54.760;9.408;2023-01-28T14:39:20;102212.38;;;7.90;65.69
64066;BME280;50318;54.760;9.408;2023-01-28T14:41:50;102223.69;;;7.92;65.87
64066;BME280;50318;54.760;9.408;2023-01-28T14:44:35;102226.06;;;7.87;65.68
64066;BME280;50318;54.760;9.408;2023-01-28T14:47:31;102240.50;;;7.80;65.59
64066;BME280;50318;54.760;9.408;2023-01-28T14:55:47;102232.34;;;7.66;66.84
64066;BME280;50318;54.760;9.408;2023-01-28T14:58:21;102208.16;;;7.54;66.00
64066;BME280;50318;54.760;9.408;2023-01-28T15:00:55;102214.41;;;7.61;66.34
64066;BME280;50318;54.760;9.408;2023-01-28T15:03:21;102204.28;;;7.44;67.18
64066;BME280;50318;54.760;9.408;2023-01-28T15:05:47;102164.13;;;7.13;67.40
64066;BME280;50318;54.760;9.408;2023-01-28T15:08:21;102201.16;;;7.17;68.23
64066;BME280;50318;54.760;9.408;2023-01-28T15:10:49;102202.72;;;7.18;68.36
64066;BME280;50318;54.760;9.408;2023-01-28T15:13:24;102197.66;;;7.20;68.40
64066;BME280;50318;54.760;9.408;2023-01-28T15:15:52;102180.09;;;7.14;68.57
64066;BME280;50318;54.760;9.408;2023-01-28T15:18:21;102191.78;;;7.22;68.52
64066;BME280;50318;54.760;9.408;2023-01-28T15:20:52;102195.31;;;7.15;68.66
64066;BME280;50318;54.760;9.408;2023-01-28T15:23:40;102198.81;;;7.16;69.47
64066;BME280;50318;54.760;9.408;2023-01-28T15:26:19;102195.69;;;7.06;69.63
64066;BME280;50318;54.760;9.408;2023-01-28T15:28:47;102180.47;;;7.05;69.63
64066;BME280;50318;54.760;9.408;2023-01-28T15:31:25;102175.03;;;7.05;69.84